createdAt,value
2024-01-30T00:00:13.818Z,68.60
2024-01-30T00:02:41.835Z,68.50
2024-01-30T00:05:10.031Z,68.50
2024-01-30T00:07:38.699Z,68.60
2024-01-30T00:10:08.363Z,68.70
2024-01-30T00:12:36.419Z,68.70
2024-01-30T00:15:05.998Z,68.70
2024-01-30T00:17:34.038Z,69.40
2024-01-30T00:20:02.112Z,68.80
2024-01-30T00:22:31.521Z,68.70
2024-01-30T00:24:59.607Z,68.80
2024-01-30T00:27:29.373Z,68.80
2024-01-30T00:29:57.406Z,68.90
2024-01-30T00:32:25.454Z,68.90
2024-01-30T00:34:53.494Z,68.80
2024-01-30T00:37:21.566Z,68.70
2024-01-30T00:39:50.053Z,68.40
2024-01-30T00:42:18.091Z,68.50
2024-01-30T00:44:47.421Z,68.50
2024-01-30T00:47:15.438Z,68.60
2024-01-30T00:49:43.515Z,68.50
2024-01-30T00:52:11.615Z,68.50
2024-01-30T00:54:39.708Z,68.60
2024-01-30T00:57:07.762Z,68.60
2024-01-30T00:59:35.788Z,68.80
2024-01-30T01:02:05.300Z,68.80
2024-01-30T01:04:33.420Z,69.00
2024-01-30T01:07:01.811Z,68.80
2024-01-30T01:09:29.832Z,68.50
2024-01-30T01:11:57.817Z,68.40
2024-01-30T01:14:26.500Z,68.40
2024-01-30T01:16:54.493Z,68.50
2024-01-30T01:19:23.928Z,69.30
2024-01-30T01:21:52.037Z,68.50
2024-01-30T01:24:20.433Z,68.60
2024-01-30T01:26:48.426Z,68.60
2024-01-30T01:29:17.005Z,68.70
2024-01-30T01:31:45.280Z,68.80
2024-01-30T01:34:13.540Z,68.80
2024-01-30T01:36:43.039Z,68.90
2024-01-30T01:39:11.737Z,68.70
2024-01-30T01:41:39.718Z,68.70
2024-01-30T01:44:07.747Z,68.90
2024-01-30T01:46:35.929Z,68.80
2024-01-30T01:49:04.861Z,68.90
2024-01-30T01:51:33.691Z,69.00
2024-01-30T01:54:04.543Z,69.00
2024-01-30T01:56:32.688Z,68.70
2024-01-30T01:59:02.332Z,68.30
2024-01-30T02:01:30.415Z,68.30
2024-01-30T02:03:58.495Z,69.10
2024-01-30T02:06:26.476Z,68.70
2024-01-30T02:08:54.432Z,68.50
2024-01-30T02:11:24.380Z,68.50
2024-01-30T02:13:52.362Z,68.50
2024-01-30T02:16:20.388Z,68.60
2024-01-30T02:18:49.243Z,68.70
2024-01-30T02:21:18.678Z,68.80
2024-01-30T02:23:46.909Z,68.80
2024-01-30T02:26:14.902Z,68.80
2024-01-30T02:28:42.888Z,68.80
2024-01-30T02:31:10.901Z,68.80
2024-01-30T02:33:38.923Z,68.90
2024-01-30T02:36:07.345Z,68.90
2024-01-30T02:38:36.681Z,69.00
2024-01-30T02:41:04.789Z,68.90
2024-01-30T02:43:32.757Z,68.60
2024-01-30T02:46:01.980Z,68.30
2024-01-30T02:48:30.146Z,68.40
2024-01-30T02:50:59.006Z,68.50
2024-01-30T02:53:26.994Z,68.60
2024-01-30T02:55:56.406Z,68.50
2024-01-30T02:58:24.458Z,68.50
2024-01-30T03:00:52.475Z,68.60
2024-01-30T03:03:20.605Z,68.70
2024-01-30T03:05:48.759Z,68.80
2024-01-30T03:08:16.757Z,68.80
2024-01-30T03:10:44.768Z,68.80
2024-01-30T03:13:14.156Z,68.70
2024-01-30T03:15:42.230Z,68.80
2024-01-30T03:18:10.258Z,68.80
2024-01-30T03:20:38.296Z,68.90
2024-01-30T03:23:06.664Z,69.00
2024-01-30T03:25:34.600Z,69.10
2024-01-30T03:28:02.630Z,69.00
2024-01-30T03:30:32.076Z,68.70
2024-01-30T03:33:00.165Z,68.50
2024-01-30T03:35:28.242Z,68.60
2024-01-30T03:37:56.254Z,68.60
2024-01-30T03:40:24.262Z,68.80
2024-01-30T03:42:52.287Z,68.70
2024-01-30T03:45:20.717Z,68.80
2024-01-30T03:47:50.333Z,68.80
2024-01-30T03:50:18.450Z,68.70
2024-01-30T03:52:46.479Z,68.80
2024-01-30T03:55:14.554Z,68.90
2024-01-30T03:57:42.543Z,69.00
2024-01-30T04:00:11.623Z,69.00
2024-01-30T04:02:42.810Z,68.70
2024-01-30T04:05:12.211Z,68.50
2024-01-30T04:07:40.206Z,68.50
2024-01-30T04:10:10.738Z,68.50
2024-01-30T04:12:38.765Z,68.80
2024-01-30T04:15:07.408Z,68.70
2024-01-30T04:17:35.439Z,68.70
2024-01-30T04:20:03.693Z,68.80
2024-01-30T04:22:33.141Z,68.70
2024-01-30T04:25:01.249Z,68.80
2024-01-30T04:27:29.241Z,68.90
2024-01-30T04:29:57.386Z,69.00
2024-01-30T04:32:25.400Z,68.90
2024-01-30T04:34:53.547Z,68.90
2024-01-30T04:37:21.693Z,68.90
2024-01-30T04:39:51.112Z,68.90
2024-01-30T04:42:19.132Z,69.00
2024-01-30T04:44:47.156Z,69.10
2024-01-30T04:47:15.152Z,69.00
2024-01-30T04:49:43.308Z,68.70
2024-01-30T04:52:11.553Z,68.50
2024-01-30T04:54:39.602Z,68.50
2024-01-30T04:57:12.750Z,68.50
2024-01-30T04:59:40.753Z,68.60
2024-01-30T05:02:09.250Z,68.60
2024-01-30T05:04:37.501Z,68.60
2024-01-30T05:07:08.942Z,68.70
2024-01-30T05:09:37.004Z,68.80
2024-01-30T05:12:05.260Z,68.90
2024-01-30T05:14:34.674Z,68.80
2024-01-30T05:17:04.103Z,69.10
2024-01-30T05:19:32.225Z,68.80
2024-01-30T05:22:00.303Z,68.50
2024-01-30T05:24:28.386Z,68.50
2024-01-30T05:26:56.347Z,68.60
2024-01-30T05:29:24.315Z,68.70
2024-01-30T05:31:53.658Z,68.80
2024-01-30T05:34:21.672Z,68.70
2024-01-30T05:36:49.701Z,68.70
2024-01-30T05:39:17.698Z,68.70
2024-01-30T05:41:45.753Z,68.80
2024-01-30T05:44:13.812Z,68.90
2024-01-30T05:46:41.798Z,68.90
2024-01-30T05:49:11.221Z,69.00
2024-01-30T05:51:39.226Z,68.70
2024-01-30T05:54:07.262Z,68.50
2024-01-30T05:56:35.270Z,68.30
2024-01-30T05:59:03.288Z,68.30
2024-01-30T06:01:31.425Z,68.50
2024-01-30T06:03:59.466Z,68.50
2024-01-30T06:06:29.149Z,68.40
2024-01-30T06:08:57.333Z,68.50
2024-01-30T06:11:25.321Z,68.50
2024-01-30T06:13:53.356Z,68.60
2024-01-30T06:16:22.326Z,68.80
2024-01-30T06:18:50.484Z,68.80
2024-01-30T06:21:18.916Z,68.70
2024-01-30T06:23:48.253Z,68.80
2024-01-30T06:26:16.216Z,68.80
2024-01-30T06:28:45.432Z,68.80
2024-01-30T06:31:13.546Z,68.80
2024-01-30T06:33:43.371Z,69.00
2024-01-30T06:36:11.450Z,69.00
2024-01-30T06:38:39.408Z,68.80
2024-01-30T06:41:08.764Z,68.50
2024-01-30T06:43:36.745Z,68.30
2024-01-30T06:46:04.828Z,68.30
2024-01-30T06:48:32.837Z,68.50
2024-01-30T06:51:00.802Z,68.50
2024-01-30T06:53:28.782Z,68.50
2024-01-30T06:55:56.722Z,68.50
2024-01-30T06:58:26.083Z,68.60
2024-01-30T07:00:54.204Z,68.70
2024-01-30T07:03:22.820Z,68.70
2024-01-30T07:05:50.876Z,68.70
2024-01-30T07:08:19.326Z,68.70
2024-01-30T07:10:47.346Z,68.70
2024-01-30T07:13:17.439Z,68.70
2024-01-30T07:15:47.385Z,68.80
2024-01-30T07:18:15.771Z,68.90
2024-01-30T07:20:47.192Z,69.00
2024-01-30T07:23:17.053Z,68.80
2024-01-30T07:25:48.229Z,68.80
2024-01-30T07:28:18.117Z,68.80
2024-01-30T07:30:48.563Z,68.80
2024-01-30T07:33:19.570Z,68.80
2024-01-30T07:35:47.849Z,69.00
2024-01-30T07:38:15.910Z,68.90
2024-01-30T07:40:44.080Z,68.70
2024-01-30T07:43:12.320Z,68.30
2024-01-30T07:45:40.379Z,68.20
2024-01-30T07:48:09.971Z,68.20
2024-01-30T07:50:38.137Z,68.50
2024-01-30T07:53:06.529Z,68.50
2024-01-30T07:55:34.789Z,68.40
2024-01-30T07:58:02.939Z,68.50
2024-01-30T08:00:31.076Z,68.50
2024-01-30T08:02:59.855Z,68.60
2024-01-30T08:05:29.856Z,68.70
2024-01-30T08:07:57.961Z,68.70
2024-01-30T08:10:26.025Z,68.70
2024-01-30T08:12:54.160Z,68.70
2024-01-30T08:15:22.172Z,68.70
2024-01-30T08:17:50.180Z,68.80
2024-01-30T08:20:19.124Z,68.90
2024-01-30T08:22:48.480Z,69.00
2024-01-30T08:25:16.644Z,68.80
2024-01-30T08:27:44.757Z,68.50
2024-01-30T08:30:13.500Z,68.30
2024-01-30T08:32:41.480Z,68.30
2024-01-30T08:35:10.236Z,68.40
2024-01-30T08:37:38.429Z,68.50
2024-01-30T08:40:09.502Z,68.40
2024-01-30T08:42:37.564Z,68.50
2024-01-30T08:45:06.580Z,68.50
2024-01-30T08:47:35.147Z,68.60
2024-01-30T08:50:03.517Z,68.60
2024-01-30T08:52:31.688Z,68.70
2024-01-30T08:54:59.763Z,68.70
2024-01-30T08:57:30.395Z,68.70
2024-01-30T08:59:58.376Z,68.70
2024-01-30T09:02:26.631Z,68.80
2024-01-30T09:04:54.753Z,68.80
2024-01-30T09:07:22.886Z,68.90
2024-01-30T09:09:51.206Z,69.00
2024-01-30T09:12:19.210Z,68.80
2024-01-30T09:14:48.533Z,68.50
2024-01-30T09:17:16.519Z,68.50
2024-01-30T09:19:44.651Z,68.50
2024-01-30T09:22:12.780Z,68.50
2024-01-30T09:24:40.856Z,68.70
2024-01-30T09:27:08.894Z,68.70
2024-01-30T09:29:37.676Z,69.40
2024-01-30T09:32:10.140Z,68.60
2024-01-30T09:34:38.337Z,68.70
2024-01-30T09:37:06.509Z,68.80
2024-01-30T09:39:34.894Z,68.90
2024-01-30T09:42:05.038Z,68.90
2024-01-30T09:44:33.053Z,68.90
2024-01-30T09:47:04.643Z,68.90
2024-01-30T09:49:34.205Z,68.90
2024-01-30T09:52:03.691Z,69.00
2024-01-30T09:54:33.727Z,69.00
2024-01-30T09:57:03.668Z,69.10
2024-01-30T09:59:31.691Z,68.80
2024-01-30T10:01:59.812Z,68.60
2024-01-30T10:04:28.128Z,68.30
2024-01-30T10:06:57.748Z,68.20
2024-01-30T10:09:26.325Z,68.30
2024-01-30T10:11:54.353Z,68.50
2024-01-30T10:14:22.374Z,68.30
2024-01-30T10:16:50.412Z,68.40
2024-01-30T10:19:18.470Z,68.50
2024-01-30T10:21:46.605Z,68.60
2024-01-30T10:24:16.243Z,68.60
2024-01-30T10:26:45.876Z,68.80
2024-01-30T10:29:14.053Z,68.70
2024-01-30T10:31:42.153Z,68.70
2024-01-30T10:34:16.890Z,68.70
2024-01-30T10:36:52.310Z,68.70
2024-01-30T10:39:21.718Z,68.80
2024-01-30T10:41:50.268Z,69.00
2024-01-30T10:44:20.391Z,68.80
2024-01-30T10:46:49.651Z,68.80
2024-01-30T10:49:17.791Z,68.90
2024-01-30T10:51:45.874Z,68.80
2024-01-30T10:54:13.952Z,68.90
2024-01-30T10:56:43.304Z,69.00
2024-01-30T10:59:12.241Z,69.10
2024-01-30T11:01:40.512Z,68.90
2024-01-30T11:04:09.086Z,68.50
2024-01-30T11:06:44.650Z,68.40
2024-01-30T11:09:13.800Z,68.40
2024-01-30T11:11:53.282Z,68.50
2024-01-30T11:14:31.948Z,68.60
2024-01-30T11:17:00.077Z,68.80
2024-01-30T11:19:28.858Z,68.90
2024-01-30T11:21:58.498Z,68.90
2024-01-30T11:24:27.407Z,69.00
2024-01-30T11:26:59.763Z,69.10
2024-01-30T11:29:28.062Z,69.10
2024-01-30T11:31:56.317Z,69.20
2024-01-30T11:34:24.972Z,69.30
2024-01-30T11:36:56.283Z,69.10
2024-01-30T11:39:24.311Z,68.80
2024-01-30T11:41:53.165Z,69.20
2024-01-30T11:44:22.727Z,68.10
2024-01-30T11:46:50.793Z,67.60
2024-01-30T11:49:18.959Z,67.30
2024-01-30T11:51:49.664Z,66.90
2024-01-30T11:54:17.917Z,66.70
2024-01-30T11:56:45.884Z,66.30
2024-01-30T11:59:15.982Z,66.10
2024-01-30T12:01:45.435Z,65.90
2024-01-30T12:04:13.516Z,65.90
2024-01-30T12:06:41.625Z,66.10
2024-01-30T12:09:10.223Z,66.40
2024-01-30T12:11:46.313Z,66.80
2024-01-30T12:14:16.373Z,67.40
2024-01-30T12:16:45.725Z,67.50
2024-01-30T12:19:14.197Z,67.60
2024-01-30T12:21:42.611Z,67.90
2024-01-30T12:24:12.382Z,68.10
2024-01-30T12:26:40.388Z,68.40
2024-01-30T12:29:08.381Z,68.80
2024-01-30T12:31:37.483Z,68.70
2024-01-30T12:34:06.905Z,68.80
2024-01-30T12:36:34.949Z,68.90
2024-01-30T12:39:03.425Z,69.00
2024-01-30T12:41:31.716Z,69.30
2024-01-30T12:44:00.296Z,69.70
2024-01-30T12:46:30.706Z,69.40
2024-01-30T12:48:58.999Z,69.10
2024-01-30T12:51:28.398Z,68.90
2024-01-30T12:53:56.345Z,68.80
2024-01-30T12:56:24.382Z,69.20
2024-01-30T12:58:54.056Z,69.30
2024-01-30T13:01:23.889Z,69.20
2024-01-30T13:03:52.096Z,69.30
2024-01-30T13:06:20.203Z,69.30
2024-01-30T13:08:49.573Z,69.40
2024-01-30T13:11:21.324Z,69.80
2024-01-30T13:13:50.090Z,69.80
2024-01-30T13:16:18.306Z,69.80
2024-01-30T13:18:46.564Z,69.80
2024-01-30T13:21:14.602Z,69.90
2024-01-30T13:23:42.970Z,70.60
2024-01-30T13:26:12.281Z,70.30
2024-01-30T13:28:40.233Z,70.30
2024-01-30T13:31:08.258Z,70.10
2024-01-30T13:33:36.310Z,69.70
2024-01-30T13:36:04.614Z,69.60
2024-01-30T13:38:32.673Z,69.60
2024-01-30T13:41:00.689Z,70.00
2024-01-30T13:43:30.335Z,69.90
2024-01-30T13:45:58.517Z,69.90
2024-01-30T13:48:27.402Z,69.80
2024-01-30T13:50:55.940Z,70.00
2024-01-30T13:53:24.163Z,70.00
2024-01-30T13:55:52.233Z,70.40
2024-01-30T13:58:20.291Z,70.20
2024-01-30T14:00:50.438Z,70.20
2024-01-30T14:03:18.605Z,70.30
2024-01-30T14:05:46.722Z,70.30
2024-01-30T14:08:14.760Z,70.20
2024-01-30T14:10:42.889Z,70.60
2024-01-30T14:13:12.588Z,70.60
2024-01-30T14:15:40.578Z,70.30
2024-01-30T14:18:10.064Z,69.90
2024-01-30T14:20:38.266Z,69.60
2024-01-30T14:23:06.464Z,69.70
2024-01-30T14:25:34.513Z,70.00
2024-01-30T14:28:04.255Z,70.00
2024-01-30T14:30:33.041Z,69.90
2024-01-30T14:33:01.178Z,70.00
2024-01-30T14:35:30.701Z,70.00
2024-01-30T14:37:58.680Z,70.20
2024-01-30T14:40:26.749Z,70.40
2024-01-30T14:42:55.934Z,70.40
2024-01-30T14:45:24.128Z,70.40
2024-01-30T14:47:52.542Z,70.50
2024-01-30T14:50:21.006Z,70.50
2024-01-30T14:52:50.564Z,70.40
2024-01-30T14:55:18.732Z,70.70
2024-01-30T14:57:47.210Z,70.50
2024-01-30T15:00:16.954Z,70.40
2024-01-30T15:02:45.375Z,70.40
2024-01-30T15:05:13.515Z,70.40
2024-01-30T15:07:41.852Z,70.40
2024-01-30T15:10:11.949Z,70.60
2024-01-30T15:12:40.276Z,70.50
2024-01-30T15:15:10.056Z,70.30
2024-01-30T15:17:38.264Z,69.90
2024-01-30T15:20:07.292Z,69.60
2024-01-30T15:22:35.412Z,69.60
2024-01-30T15:25:04.429Z,69.80
2024-01-30T15:27:33.838Z,69.70
2024-01-30T15:30:01.868Z,69.60
2024-01-30T15:32:29.905Z,69.70
2024-01-30T15:35:02.038Z,69.90
2024-01-30T15:37:30.434Z,69.90
2024-01-30T15:39:58.570Z,70.10
2024-01-30T15:42:27.121Z,70.00
2024-01-30T15:44:56.711Z,70.00
2024-01-30T15:47:24.931Z,70.10
2024-01-30T15:49:53.097Z,70.00
2024-01-30T15:52:21.250Z,70.10
2024-01-30T15:54:49.461Z,70.30
2024-01-30T15:57:17.459Z,70.20
2024-01-30T15:59:45.961Z,70.20
2024-01-30T16:02:15.865Z,70.10
2024-01-30T16:04:44.192Z,70.10
2024-01-30T16:07:12.243Z,70.90
2024-01-30T16:09:40.230Z,70.30
2024-01-30T16:12:08.913Z,70.40
2024-01-30T16:14:37.383Z,70.30
2024-01-30T16:17:05.752Z,69.90
2024-01-30T16:19:35.379Z,69.50
2024-01-30T16:22:03.479Z,69.40
2024-01-30T16:24:31.513Z,69.50
2024-01-30T16:26:59.649Z,69.70
2024-01-30T16:29:27.841Z,69.60
2024-01-30T16:31:56.017Z,69.70
2024-01-30T16:34:24.087Z,69.60
2024-01-30T16:36:53.572Z,69.70
2024-01-30T16:39:21.602Z,69.90
2024-01-30T16:41:50.169Z,70.10
2024-01-30T16:44:18.129Z,69.90
2024-01-30T16:46:46.814Z,70.00
2024-01-30T16:49:15.787Z,70.00
2024-01-30T16:51:43.822Z,69.90
2024-01-30T16:54:13.213Z,70.00
2024-01-30T16:56:41.218Z,70.10
2024-01-30T16:59:09.196Z,70.00
2024-01-30T17:01:37.221Z,70.00
2024-01-30T17:04:05.872Z,70.00
2024-01-30T17:06:34.510Z,70.10
2024-01-30T17:09:02.548Z,70.10
2024-01-30T17:11:31.856Z,70.20
2024-01-30T17:13:59.885Z,70.20
2024-01-30T17:16:27.915Z,70.00
2024-01-30T17:18:57.660Z,69.70
2024-01-30T17:21:25.864Z,69.30
2024-01-30T17:23:53.845Z,69.30
2024-01-30T17:26:22.819Z,69.40
2024-01-30T17:28:52.348Z,69.60
2024-01-30T17:31:20.336Z,69.50
2024-01-30T17:33:48.503Z,69.60
2024-01-30T17:36:16.696Z,69.60
2024-01-30T17:38:44.713Z,69.80
2024-01-30T17:41:13.264Z,69.90
2024-01-30T17:43:41.394Z,70.70
2024-01-30T17:46:10.795Z,70.00
2024-01-30T17:48:38.921Z,70.00
2024-01-30T17:51:07.453Z,70.00
2024-01-30T17:53:37.297Z,70.00
2024-01-30T17:56:07.171Z,70.10
2024-01-30T17:58:35.372Z,70.10
2024-01-30T18:01:04.306Z,70.20
2024-01-30T18:03:33.967Z,69.90
2024-01-30T18:06:02.064Z,69.50
2024-01-30T18:08:30.136Z,69.50
2024-01-30T18:10:58.854Z,69.60
2024-01-30T18:13:27.044Z,69.70
2024-01-30T18:15:55.141Z,69.60
2024-01-30T18:18:27.487Z,69.60
2024-01-30T18:20:59.892Z,69.60
2024-01-30T18:23:27.949Z,69.70
2024-01-30T18:26:01.075Z,69.80
2024-01-30T18:28:29.402Z,70.00
2024-01-30T18:30:57.984Z,69.90
2024-01-30T18:33:26.291Z,69.90
2024-01-30T18:35:54.436Z,69.90
2024-01-30T18:38:23.834Z,70.00
2024-01-30T18:40:51.938Z,69.90
2024-01-30T18:43:20.008Z,70.00
2024-01-30T18:45:53.392Z,70.10
2024-01-30T18:48:21.472Z,69.90
2024-01-30T18:50:49.503Z,69.60
2024-01-30T18:53:17.500Z,69.40
2024-01-30T18:55:47.028Z,69.30
2024-01-30T18:58:16.146Z,69.30
2024-01-30T19:00:48.078Z,69.50
2024-01-30T19:03:17.764Z,69.40
2024-01-30T19:05:46.079Z,69.50
2024-01-30T19:08:15.254Z,69.50
2024-01-30T19:10:44.165Z,69.60
2024-01-30T19:13:15.692Z,69.70
2024-01-30T19:15:45.170Z,69.80
2024-01-30T19:18:13.692Z,69.80
2024-01-30T19:20:42.254Z,69.80
2024-01-30T19:23:10.284Z,69.90
2024-01-30T19:25:40.668Z,69.90
2024-01-30T19:28:10.531Z,70.00
2024-01-30T19:30:39.938Z,70.00
2024-01-30T19:33:08.357Z,70.00
2024-01-30T19:35:36.399Z,70.00
2024-01-30T19:38:04.435Z,70.00
2024-01-30T19:40:32.476Z,69.80
2024-01-30T19:43:00.897Z,69.90
2024-01-30T19:45:29.037Z,70.10
2024-01-30T19:47:58.414Z,70.10
2024-01-30T19:50:26.582Z,69.90
2024-01-30T19:52:54.588Z,69.50
2024-01-30T19:55:24.824Z,69.20
2024-01-30T19:57:54.186Z,69.20
2024-01-30T20:00:22.535Z,69.30
2024-01-30T20:02:50.662Z,69.40
2024-01-30T20:05:20.385Z,69.30
2024-01-30T20:07:50.651Z,69.40
2024-01-30T20:10:18.711Z,69.60
2024-01-30T20:12:46.926Z,69.60
2024-01-30T20:15:16.485Z,69.70
2024-01-30T20:17:44.985Z,69.80
2024-01-30T20:20:17.514Z,69.70
2024-01-30T20:22:47.883Z,69.80
2024-01-30T20:25:19.291Z,69.80
2024-01-30T20:27:48.719Z,69.80
2024-01-30T20:30:23.294Z,70.00
2024-01-30T20:32:52.644Z,70.00
2024-01-30T20:35:21.061Z,69.90
2024-01-30T20:37:51.395Z,69.60
2024-01-30T20:40:20.207Z,69.60
2024-01-30T20:42:48.729Z,69.60
2024-01-30T20:45:16.828Z,69.60
2024-01-30T20:47:45.032Z,69.80
2024-01-30T20:50:13.247Z,69.70
2024-01-30T20:52:41.365Z,69.70
2024-01-30T20:55:10.887Z,69.80
2024-01-30T20:57:38.928Z,69.80
2024-01-30T21:00:08.358Z,69.90
2024-01-30T21:02:38.372Z,70.00
2024-01-30T21:05:07.069Z,70.00
2024-01-30T21:07:35.301Z,69.70
2024-01-30T21:10:04.168Z,70.20
2024-01-30T21:12:33.649Z,69.50
2024-01-30T21:15:01.623Z,69.50
2024-01-30T21:17:29.615Z,69.60
2024-01-30T21:19:57.697Z,69.70
2024-01-30T21:22:25.923Z,69.60
2024-01-30T21:24:54.097Z,69.80
2024-01-30T21:27:22.273Z,69.70
2024-01-30T21:29:51.634Z,69.80
2024-01-30T21:32:19.645Z,69.90
2024-01-30T21:34:47.691Z,70.00
2024-01-30T21:37:15.760Z,69.80
2024-01-30T21:39:43.850Z,70.00
2024-01-30T21:42:11.856Z,69.90
2024-01-30T21:44:41.435Z,69.90
2024-01-30T21:47:10.836Z,70.00
2024-01-30T21:49:40.618Z,70.20
2024-01-30T21:52:09.427Z,70.10
2024-01-30T21:54:38.578Z,69.90
2024-01-30T21:57:06.946Z,69.50
2024-01-30T21:59:34.954Z,69.30
2024-01-30T22:02:03.881Z,69.30
2024-01-30T22:04:33.368Z,69.60
2024-01-30T22:07:01.410Z,69.60
2024-01-30T22:09:29.461Z,69.60
2024-01-30T22:11:57.450Z,69.60
2024-01-30T22:14:25.406Z,69.70
2024-01-30T22:16:53.416Z,69.80
2024-01-30T22:19:21.558Z,70.00
2024-01-30T22:21:50.977Z,70.00
2024-01-30T22:24:20.251Z,70.00
2024-01-30T22:26:48.248Z,70.60
2024-01-30T22:29:16.216Z,69.90
2024-01-30T22:31:44.302Z,70.00
2024-01-30T22:34:12.446Z,70.10
2024-01-30T22:36:40.441Z,70.20
2024-01-30T22:39:10.624Z,69.90
2024-01-30T22:41:38.616Z,70.30
2024-01-30T22:44:07.020Z,69.50
2024-01-30T22:46:35.088Z,69.50
2024-01-30T22:49:03.226Z,69.60
2024-01-30T22:51:31.300Z,69.60
2024-01-30T22:53:59.334Z,69.60
2024-01-30T22:56:28.688Z,69.70
2024-01-30T22:58:56.643Z,69.80
2024-01-30T23:01:24.697Z,69.90
2024-01-30T23:03:52.816Z,69.90
2024-01-30T23:06:21.190Z,70.70
2024-01-30T23:08:49.180Z,69.90
2024-01-30T23:11:17.158Z,69.90
2024-01-30T23:13:46.500Z,70.00
2024-01-30T23:16:14.567Z,70.00
2024-01-30T23:18:42.700Z,70.10
2024-01-30T23:21:10.706Z,70.20
2024-01-30T23:23:38.654Z,70.10
2024-01-30T23:26:06.610Z,69.70
2024-01-30T23:28:34.757Z,69.50
2024-01-30T23:31:04.358Z,69.60
2024-01-30T23:33:32.346Z,69.60
2024-01-30T23:36:00.727Z,69.90
2024-01-30T23:38:28.658Z,69.80
2024-01-30T23:40:57.134Z,69.70
2024-01-30T23:43:27.727Z,69.80
2024-01-30T23:45:58.119Z,69.80
2024-01-30T23:48:27.641Z,69.80
2024-01-30T23:50:55.707Z,70.70
2024-01-30T23:53:23.684Z,70.10
2024-01-30T23:55:51.800Z,70.60
2024-01-30T23:58:20.647Z,69.60
